createdAt,value
2023-05-10T00:00:19.555Z,18.07
2023-05-10T00:02:46.902Z,16.40
2023-05-10T00:05:13.839Z,17.23
2023-05-10T00:07:40.701Z,14.60
2023-05-10T00:10:07.857Z,15.17
2023-05-10T00:12:34.782Z,16.10
2023-05-10T00:15:01.705Z,14.43
2023-05-10T00:17:28.650Z,18.93
2023-05-10T00:19:55.575Z,17.57
2023-05-10T00:22:22.587Z,10.57
2023-05-10T00:24:49.436Z,13.07
2023-05-10T00:27:16.530Z,11.23
2023-05-10T00:29:43.922Z,14.97
2023-05-10T00:32:10.877Z,15.17
2023-05-10T00:34:38.231Z,11.03
2023-05-10T00:37:06.772Z,10.43
2023-05-10T00:39:33.595Z,14.33
2023-05-10T00:42:01.387Z,10.73
2023-05-10T00:44:28.757Z,9.67
2023-05-10T00:46:55.727Z,11.20
2023-05-10T00:49:22.617Z,13.87
2023-05-10T00:51:51.358Z,10.87
2023-05-10T00:54:18.446Z,13.60
2023-05-10T00:56:50.343Z,11.83
2023-05-10T00:59:18.249Z,13.73
2023-05-10T01:01:48.388Z,8.37
2023-05-10T01:04:16.179Z,12.93
2023-05-10T01:06:43.066Z,10.90
2023-05-10T01:09:10.130Z,11.93
2023-05-10T01:11:37.775Z,16.20
2023-05-10T01:14:04.815Z,14.77
2023-05-10T01:16:34.425Z,12.60
2023-05-10T01:19:01.842Z,13.07
2023-05-10T01:21:40.131Z,11.90
2023-05-10T01:24:18.408Z,12.20
2023-05-10T01:26:48.086Z,15.10
2023-05-10T01:29:18.002Z,13.17
2023-05-10T01:32:03.676Z,14.33
2023-05-10T01:34:36.026Z,15.97
2023-05-10T01:37:09.359Z,12.90
2023-05-10T01:39:36.236Z,13.10
2023-05-10T01:42:09.408Z,15.73
2023-05-10T01:44:42.458Z,12.40
2023-05-10T01:47:11.923Z,15.60
2023-05-10T01:49:47.702Z,8.47
2023-05-10T01:52:17.066Z,18.97
2023-05-10T01:54:45.947Z,11.90
2023-05-10T01:57:15.342Z,14.37
2023-05-10T01:59:44.292Z,14.53
2023-05-10T02:02:13.336Z,13.00
2023-05-10T02:04:41.277Z,12.23
2023-05-10T02:07:08.485Z,14.77
2023-05-10T02:09:36.153Z,13.73
2023-05-10T02:12:04.100Z,13.93
2023-05-10T02:14:33.421Z,12.53
2023-05-10T02:17:01.060Z,15.50
2023-05-10T02:19:29.109Z,16.13
2023-05-10T02:21:57.531Z,15.13
2023-05-10T02:24:25.189Z,16.23
2023-05-10T02:26:54.738Z,17.77
2023-05-10T02:29:22.335Z,11.73
2023-05-10T02:31:49.297Z,12.30
2023-05-10T02:34:16.153Z,13.23
2023-05-10T02:36:43.438Z,13.67
2023-05-10T02:39:13.798Z,11.90
2023-05-10T02:41:41.968Z,13.10
2023-05-10T02:44:10.861Z,17.33
2023-05-10T02:46:38.837Z,10.63
2023-05-10T02:49:05.700Z,11.87
2023-05-10T02:51:33.448Z,16.77
2023-05-10T02:54:05.242Z,12.73
2023-05-10T02:56:37.463Z,17.87
2023-05-10T02:59:04.417Z,16.23
2023-05-10T03:01:31.604Z,13.50
2023-05-10T03:03:59.283Z,14.17
2023-05-10T03:06:26.406Z,14.63
2023-05-10T03:08:53.350Z,13.57
2023-05-10T03:11:20.233Z,15.27
2023-05-10T03:13:50.148Z,11.33
2023-05-10T03:16:18.217Z,12.50
2023-05-10T03:18:47.962Z,14.10
2023-05-10T03:21:16.531Z,13.37
2023-05-10T03:23:52.663Z,15.33
2023-05-10T03:26:24.800Z,14.63
2023-05-10T03:28:54.074Z,13.43
2023-05-10T03:31:21.087Z,19.23
2023-05-10T03:33:48.951Z,27.00
2023-05-10T03:36:18.135Z,48.13
2023-05-10T03:38:45.117Z,98.63
2023-05-10T03:41:12.485Z,32.33
2023-05-10T03:43:39.685Z,32.57
2023-05-10T03:46:07.380Z,40.90
2023-05-10T03:48:34.925Z,26.57
2023-05-10T03:51:01.719Z,26.57
2023-05-10T03:53:28.763Z,18.53
2023-05-10T03:55:55.846Z,18.37
2023-05-10T03:58:23.084Z,15.83
2023-05-10T04:00:50.083Z,11.57
2023-05-10T04:03:17.697Z,14.67
2023-05-10T04:05:44.647Z,12.57
2023-05-10T04:08:12.423Z,30.20
2023-05-10T04:10:39.371Z,44.90
2023-05-10T04:13:06.506Z,38.33
2023-05-10T04:15:33.396Z,41.93
2023-05-10T04:18:00.638Z,23.13
2023-05-10T04:20:27.748Z,30.70
2023-05-10T04:22:54.838Z,17.93
2023-05-10T04:25:21.969Z,11.80
2023-05-10T04:27:48.814Z,19.50
2023-05-10T04:30:16.089Z,33.53
2023-05-10T04:32:43.008Z,20.20
2023-05-10T04:35:11.264Z,21.50
2023-05-10T04:37:38.272Z,25.77
2023-05-10T04:40:05.426Z,25.17
2023-05-10T04:42:32.210Z,17.03
2023-05-10T04:44:59.152Z,10.27
2023-05-10T04:47:26.039Z,17.80
2023-05-10T04:49:52.953Z,27.57
2023-05-10T04:52:19.802Z,14.33
2023-05-10T04:54:46.889Z,10.13
2023-05-10T04:57:13.686Z,32.57
2023-05-10T04:59:40.568Z,15.20
2023-05-10T05:02:07.567Z,10.97
2023-05-10T05:04:34.536Z,17.23
2023-05-10T05:07:01.501Z,17.43
2023-05-10T05:09:28.406Z,12.10
2023-05-10T05:11:55.216Z,9.87
2023-05-10T05:14:22.513Z,11.63
2023-05-10T05:16:49.471Z,13.57
2023-05-10T05:19:16.646Z,7.43
2023-05-10T05:21:43.916Z,11.23
2023-05-10T05:24:11.394Z,13.57
2023-05-10T05:26:38.440Z,17.10
2023-05-10T05:29:05.469Z,7.27
2023-05-10T05:31:32.337Z,12.83
2023-05-10T05:33:59.212Z,11.00
2023-05-10T05:36:26.332Z,11.47
2023-05-10T05:38:53.138Z,12.93
2023-05-10T05:41:20.012Z,9.13
2023-05-10T05:43:46.866Z,8.90
2023-05-10T05:46:13.819Z,6.83
2023-05-10T05:48:40.643Z,11.43
2023-05-10T05:51:07.641Z,8.33
2023-05-10T05:53:34.429Z,8.97
2023-05-10T05:56:01.490Z,7.73
2023-05-10T05:58:28.432Z,12.43
2023-05-10T06:00:55.283Z,7.47
2023-05-10T06:03:22.306Z,10.60
2023-05-10T06:05:49.606Z,7.93
2023-05-10T06:08:16.588Z,7.70
2023-05-10T06:10:43.455Z,8.73
2023-05-10T06:13:10.411Z,12.13
2023-05-10T06:15:37.400Z,18.20
2023-05-10T06:18:04.442Z,20.77
2023-05-10T06:20:32.768Z,6.50
2023-05-10T06:22:59.861Z,8.43
2023-05-10T06:25:26.727Z,6.80
2023-05-10T06:27:58.440Z,7.03
2023-05-10T06:30:28.628Z,8.53
2023-05-10T06:32:56.168Z,8.43
2023-05-10T06:35:23.340Z,7.13
2023-05-10T06:37:50.357Z,6.47
2023-05-10T06:40:17.346Z,6.10
2023-05-10T06:42:46.082Z,8.10
2023-05-10T06:45:13.178Z,5.83
2023-05-10T06:47:40.201Z,6.83
2023-05-10T06:50:07.729Z,4.83
2023-05-10T06:52:34.665Z,5.90
2023-05-10T06:55:01.667Z,5.23
2023-05-10T06:57:31.695Z,5.83
2023-05-10T07:00:00.033Z,4.87
2023-05-10T07:02:26.995Z,5.33
2023-05-10T07:04:54.242Z,7.17
2023-05-10T07:07:21.151Z,5.57
2023-05-10T07:09:48.083Z,7.70
2023-05-10T07:12:15.513Z,6.13
2023-05-10T07:14:43.142Z,9.23
2023-05-10T07:17:10.594Z,5.87
2023-05-10T07:19:37.563Z,6.53
2023-05-10T07:22:04.481Z,4.23
2023-05-10T07:24:32.403Z,6.07
2023-05-10T07:26:59.674Z,5.23
2023-05-10T07:29:26.660Z,3.93
2023-05-10T07:31:54.865Z,5.17
2023-05-10T07:34:23.422Z,9.47
2023-05-10T07:36:50.211Z,8.03
2023-05-10T07:39:26.501Z,8.77
2023-05-10T07:41:54.506Z,6.17
2023-05-10T07:44:21.549Z,4.83
2023-05-10T07:46:49.425Z,7.17
2023-05-10T07:49:16.350Z,5.17
2023-05-10T07:51:43.777Z,4.27
2023-05-10T07:54:10.745Z,6.73
2023-05-10T07:56:37.729Z,5.40
2023-05-10T07:59:05.426Z,4.00
2023-05-10T08:01:36.030Z,5.47
2023-05-10T08:04:03.363Z,4.73
2023-05-10T08:06:31.345Z,4.87
2023-05-10T08:08:58.522Z,4.07
2023-05-10T08:11:26.080Z,3.37
2023-05-10T08:13:53.133Z,5.70
2023-05-10T08:16:20.600Z,6.60
2023-05-10T08:18:48.268Z,3.63
2023-05-10T08:21:15.718Z,5.63
2023-05-10T08:23:42.773Z,6.63
2023-05-10T08:26:09.673Z,7.63
2023-05-10T08:28:36.506Z,4.67
2023-05-10T08:31:03.436Z,4.00
2023-05-10T08:33:30.290Z,4.70
2023-05-10T08:35:57.134Z,5.50
2023-05-10T08:38:24.121Z,4.10
2023-05-10T08:40:52.036Z,6.10
2023-05-10T08:43:19.474Z,5.60
2023-05-10T08:45:49.208Z,3.67
2023-05-10T08:48:16.533Z,7.83
2023-05-10T08:50:44.257Z,7.80
2023-05-10T08:53:12.560Z,4.53
2023-05-10T08:55:40.038Z,4.60
2023-05-10T08:58:07.740Z,3.77
2023-05-10T09:00:35.067Z,9.30
2023-05-10T09:03:02.687Z,6.20
2023-05-10T09:05:29.560Z,3.30
2023-05-10T09:07:56.826Z,3.23
2023-05-10T09:10:27.124Z,7.00
2023-05-10T09:12:54.804Z,12.20
2023-05-10T09:15:21.758Z,5.37
2023-05-10T09:17:49.120Z,4.17
2023-05-10T09:20:16.261Z,4.30
2023-05-10T09:22:43.120Z,3.37
2023-05-10T09:25:12.049Z,2.97
2023-05-10T09:27:39.918Z,7.60
2023-05-10T09:30:07.769Z,8.43
2023-05-10T09:32:38.619Z,1.83
2023-05-10T09:35:11.046Z,6.33
2023-05-10T09:37:37.941Z,5.07
2023-05-10T09:40:08.776Z,2.23
2023-05-10T09:42:36.340Z,4.00
2023-05-10T09:45:06.684Z,3.10
2023-05-10T09:47:34.868Z,3.63
2023-05-10T09:50:06.201Z,5.23
2023-05-10T09:52:46.841Z,4.47
2023-05-10T09:55:14.546Z,5.47
2023-05-10T09:57:42.098Z,4.20
2023-05-10T10:00:10.020Z,6.03
2023-05-10T10:02:42.747Z,6.13
2023-05-10T10:05:09.968Z,4.50
2023-05-10T10:07:37.029Z,9.53
2023-05-10T10:10:05.049Z,5.27
2023-05-10T10:12:32.161Z,5.30
2023-05-10T10:15:00.757Z,9.67
2023-05-10T10:17:28.928Z,4.77
2023-05-10T10:19:56.685Z,7.47
2023-05-10T10:22:23.652Z,3.80
2023-05-10T10:24:51.579Z,3.57
2023-05-10T10:27:50.618Z,4.40
2023-05-10T10:30:23.168Z,2.67
2023-05-10T10:33:16.883Z,3.67
2023-05-10T10:35:55.219Z,3.07
2023-05-10T10:38:22.136Z,4.73
2023-05-10T10:40:49.187Z,6.23
2023-05-10T10:43:28.221Z,3.37
2023-05-10T10:46:14.663Z,5.83
2023-05-10T10:48:42.680Z,3.20
2023-05-10T10:51:10.893Z,5.67
2023-05-10T10:53:39.615Z,6.40
2023-05-10T10:56:11.577Z,5.07
2023-05-10T10:58:39.993Z,4.93
2023-05-10T11:01:11.494Z,5.90
2023-05-10T11:03:38.387Z,5.10
2023-05-10T11:06:05.308Z,5.43
2023-05-10T11:08:33.703Z,3.63
2023-05-10T11:11:01.981Z,6.93
2023-05-10T11:13:30.504Z,3.80
2023-05-10T11:15:58.566Z,4.33
2023-05-10T11:18:26.526Z,3.60
2023-05-10T11:20:56.422Z,4.50
2023-05-10T11:23:23.407Z,3.60
2023-05-10T11:25:51.078Z,3.63
2023-05-10T11:28:19.563Z,6.03
2023-05-10T11:30:46.974Z,3.77
2023-05-10T11:33:17.931Z,4.80
2023-05-10T11:35:45.042Z,7.20
2023-05-10T11:38:12.582Z,3.43
2023-05-10T11:40:39.972Z,3.80
2023-05-10T11:43:09.697Z,5.10
2023-05-10T11:45:36.745Z,7.03
2023-05-10T11:48:03.965Z,5.13
2023-05-10T11:50:30.995Z,3.67
2023-05-10T11:52:58.073Z,4.80
2023-05-10T11:55:27.911Z,4.43
2023-05-10T11:57:55.324Z,3.10
2023-05-10T12:00:22.371Z,3.93
2023-05-10T12:02:49.856Z,8.47
2023-05-10T12:05:17.203Z,4.03
2023-05-10T12:07:44.200Z,4.03
2023-05-10T12:10:12.191Z,3.60
2023-05-10T12:12:39.640Z,3.13
2023-05-10T12:15:11.745Z,4.17
2023-05-10T12:17:42.682Z,3.70
2023-05-10T12:20:23.377Z,4.37
2023-05-10T12:22:51.499Z,5.77
2023-05-10T12:25:19.131Z,5.20
2023-05-10T12:27:58.943Z,3.23
2023-05-10T12:30:27.148Z,2.50
2023-05-10T12:32:54.414Z,4.50
2023-05-10T12:35:25.234Z,2.90
2023-05-10T12:37:52.434Z,2.57
2023-05-10T12:40:19.505Z,7.87
2023-05-10T12:42:46.498Z,5.57
2023-05-10T12:45:13.771Z,4.80
2023-05-10T12:47:43.758Z,4.40
2023-05-10T12:50:11.510Z,3.53
2023-05-10T12:52:38.583Z,7.53
2023-05-10T12:55:05.574Z,2.70
2023-05-10T12:57:32.531Z,5.07
2023-05-10T12:59:59.347Z,3.27
2023-05-10T13:02:26.320Z,3.13
2023-05-10T13:04:54.228Z,4.17
2023-05-10T13:07:21.337Z,3.17
2023-05-10T13:09:48.149Z,3.10
2023-05-10T13:12:15.090Z,3.13
2023-05-10T13:14:42.053Z,3.00
2023-05-10T13:17:08.861Z,4.20
2023-05-10T13:19:35.988Z,3.00
2023-05-10T13:22:02.894Z,4.47
2023-05-10T13:24:29.918Z,4.10
2023-05-10T13:26:56.804Z,7.40
2023-05-10T13:29:23.754Z,4.90
2023-05-10T13:31:50.898Z,5.97
2023-05-10T13:34:18.101Z,2.90
2023-05-10T13:36:45.001Z,4.30
2023-05-10T13:39:12.025Z,4.70
2023-05-10T13:41:39.220Z,4.33
2023-05-10T13:44:08.854Z,4.13
2023-05-10T13:46:35.981Z,5.03
2023-05-10T13:49:03.280Z,5.77
2023-05-10T13:51:30.103Z,3.87
2023-05-10T13:53:57.017Z,3.50
2023-05-10T13:56:23.857Z,6.17
2023-05-10T13:58:50.714Z,5.47
2023-05-10T14:01:17.698Z,4.37
2023-05-10T14:03:45.082Z,7.03
2023-05-10T14:06:12.087Z,6.73
2023-05-10T14:08:38.903Z,6.10
2023-05-10T14:11:06.015Z,7.70
2023-05-10T14:13:32.815Z,6.40
2023-05-10T14:16:01.874Z,3.87
2023-05-10T14:18:29.612Z,3.73
2023-05-10T14:20:56.570Z,5.23
2023-05-10T14:23:27.303Z,7.40
2023-05-10T14:25:54.446Z,6.40
2023-05-10T14:28:22.000Z,4.43
2023-05-10T14:30:48.973Z,4.70
2023-05-10T14:33:16.095Z,4.87
2023-05-10T14:35:43.090Z,7.50
2023-05-10T14:38:09.967Z,7.13
2023-05-10T14:40:37.017Z,4.87
2023-05-10T14:43:03.838Z,5.83
2023-05-10T14:45:30.867Z,5.93
2023-05-10T14:47:58.491Z,6.50
2023-05-10T14:53:00.237Z,5.53
2023-05-10T14:55:27.088Z,5.77
2023-05-10T14:57:54.379Z,7.60
2023-05-10T15:00:21.488Z,10.30
2023-05-10T15:02:50.235Z,8.37
2023-05-10T15:05:17.886Z,4.13
2023-05-10T15:07:45.432Z,4.53
2023-05-10T15:10:12.665Z,6.53
2023-05-10T15:12:39.650Z,3.10
2023-05-10T15:15:06.916Z,3.27
2023-05-10T15:17:34.029Z,3.37
2023-05-10T15:20:01.284Z,3.60
2023-05-10T15:22:29.416Z,5.03
2023-05-10T15:24:56.316Z,5.40
2023-05-10T15:27:23.187Z,3.17
2023-05-10T15:29:49.992Z,3.47
2023-05-10T15:32:16.939Z,5.37
2023-05-10T15:34:43.793Z,4.10
2023-05-10T15:37:11.095Z,3.63
2023-05-10T15:39:37.961Z,7.77
2023-05-10T15:42:05.215Z,7.27
2023-05-10T15:44:32.169Z,5.53
2023-05-10T15:46:59.355Z,7.80
2023-05-10T15:49:26.894Z,4.50
2023-05-10T15:51:53.787Z,3.47
2023-05-10T15:54:20.741Z,5.47
2023-05-10T15:56:47.593Z,4.60
2023-05-10T15:59:14.605Z,4.77
2023-05-10T16:01:41.411Z,6.23
2023-05-10T16:04:08.636Z,4.93
2023-05-10T16:06:36.012Z,7.93
2023-05-10T16:09:02.931Z,3.07
2023-05-10T16:11:30.186Z,4.83
2023-05-10T16:13:57.091Z,3.30
2023-05-10T16:16:24.591Z,4.83
2023-05-10T16:18:52.535Z,6.13
2023-05-10T16:21:19.465Z,6.90
2023-05-10T16:23:46.767Z,4.50
2023-05-10T16:26:13.870Z,6.47
2023-05-10T16:28:41.501Z,3.80
2023-05-10T16:31:08.560Z,5.87
2023-05-10T16:33:35.517Z,7.50
2023-05-10T16:36:02.588Z,4.30
2023-05-10T16:38:30.065Z,5.70
2023-05-10T16:40:57.577Z,4.23
2023-05-10T16:43:26.125Z,4.53
2023-05-10T16:45:53.516Z,4.13
2023-05-10T16:48:20.322Z,3.23
2023-05-10T16:50:48.471Z,3.73
2023-05-10T16:53:15.448Z,5.80
2023-05-10T16:55:42.454Z,4.30
2023-05-10T16:58:09.348Z,5.13
2023-05-10T17:00:36.487Z,5.60
2023-05-10T17:03:04.443Z,5.50
2023-05-10T17:05:31.401Z,6.80
2023-05-10T17:07:58.477Z,7.80
2023-05-10T17:10:25.336Z,5.93
2023-05-10T17:12:53.879Z,5.10
2023-05-10T17:15:21.051Z,4.70
2023-05-10T17:17:48.312Z,5.83
2023-05-10T17:20:15.295Z,4.77
2023-05-10T17:22:42.134Z,4.43
2023-05-10T17:25:09.150Z,6.20
2023-05-10T17:27:36.887Z,4.60
2023-05-10T17:30:03.827Z,13.83
2023-05-10T17:32:31.114Z,8.17
2023-05-10T17:34:58.390Z,8.47
2023-05-10T17:37:25.738Z,4.47
2023-05-10T17:39:52.540Z,8.00
2023-05-10T17:42:20.951Z,5.97
2023-05-10T17:44:48.183Z,9.87
2023-05-10T17:47:15.075Z,6.83
2023-05-10T17:49:42.618Z,4.93
2023-05-10T17:52:09.662Z,7.77
2023-05-10T17:54:36.914Z,6.40
2023-05-10T17:57:03.969Z,7.30
2023-05-10T17:59:31.317Z,6.50
2023-05-10T18:01:58.113Z,6.83
2023-05-10T18:04:26.162Z,4.60
2023-05-10T18:07:01.082Z,9.97
2023-05-10T18:09:28.727Z,8.17
2023-05-10T18:11:55.925Z,8.73
2023-05-10T18:14:36.048Z,5.50
2023-05-10T18:17:07.280Z,8.50
2023-05-10T18:19:34.503Z,7.10
2023-05-10T18:22:01.282Z,8.77
2023-05-10T18:24:38.398Z,5.97
2023-05-10T18:27:06.889Z,5.30
2023-05-10T18:29:33.727Z,5.43
2023-05-10T18:32:01.271Z,7.73
2023-05-10T18:34:28.095Z,9.07
2023-05-10T18:36:55.240Z,11.90
2023-05-10T18:39:22.122Z,8.40
2023-05-10T18:41:49.879Z,9.97
2023-05-10T18:44:16.665Z,9.80
2023-05-10T18:46:43.758Z,12.10
2023-05-10T18:49:10.591Z,10.57
2023-05-10T18:51:37.468Z,12.10
2023-05-10T18:54:04.763Z,7.67
2023-05-10T18:56:31.625Z,11.53
2023-05-10T18:58:59.494Z,8.67
2023-05-10T19:01:26.496Z,10.83
2023-05-10T19:03:53.581Z,11.73
2023-05-10T19:06:20.845Z,9.60
2023-05-10T19:08:47.924Z,7.40
2023-05-10T19:11:14.759Z,9.93
2023-05-10T19:13:41.667Z,7.27
2023-05-10T19:16:13.128Z,6.67
2023-05-10T19:18:40.360Z,7.13
2023-05-10T19:21:10.522Z,11.27
2023-05-10T19:23:39.831Z,9.23
2023-05-10T19:26:07.012Z,9.23
2023-05-10T19:28:34.910Z,7.00
2023-05-10T19:31:02.193Z,9.13
2023-05-10T19:33:29.102Z,6.30
2023-05-10T19:35:56.085Z,10.93
2023-05-10T19:38:23.691Z,9.03
2023-05-10T19:40:51.062Z,8.67
2023-05-10T19:43:17.964Z,13.17
2023-05-10T19:45:45.098Z,7.00
2023-05-10T19:48:12.561Z,8.10
2023-05-10T19:50:39.765Z,6.77
2023-05-10T19:53:06.747Z,9.00
2023-05-10T19:55:33.966Z,8.03
2023-05-10T19:58:01.054Z,10.67
2023-05-10T20:00:27.933Z,9.07
2023-05-10T20:02:55.185Z,8.03
2023-05-10T20:05:22.278Z,14.97
2023-05-10T20:07:49.100Z,7.63
2023-05-10T20:10:16.662Z,9.27
2023-05-10T20:12:51.635Z,12.47
2023-05-10T20:15:23.074Z,13.30
2023-05-10T20:17:54.169Z,8.37
2023-05-10T20:20:21.571Z,9.50
2023-05-10T20:22:48.438Z,13.23
2023-05-10T20:25:17.252Z,9.53
2023-05-10T20:27:44.559Z,12.67
2023-05-10T20:30:11.710Z,26.97
2023-05-10T20:32:39.110Z,8.53
2023-05-10T20:35:06.365Z,11.40
2023-05-10T20:37:33.210Z,8.67
2023-05-10T20:40:00.082Z,8.83
2023-05-10T20:42:27.245Z,9.37
2023-05-10T20:44:54.238Z,9.00
2023-05-10T20:47:23.516Z,13.47
2023-05-10T20:49:50.513Z,10.37
2023-05-10T20:52:17.341Z,15.13
2023-05-10T20:54:44.297Z,8.60
2023-05-10T20:57:13.207Z,10.00
2023-05-10T20:59:40.278Z,7.90
2023-05-10T21:02:07.309Z,12.70
2023-05-10T21:04:34.280Z,8.97
2023-05-10T21:07:01.214Z,8.70
2023-05-10T21:09:28.046Z,9.37
2023-05-10T21:11:54.995Z,13.23
2023-05-10T21:14:21.937Z,7.73
2023-05-10T21:16:48.805Z,15.23
2023-05-10T21:19:17.352Z,7.03
2023-05-10T21:21:44.138Z,8.53
2023-05-10T21:24:11.244Z,6.80
2023-05-10T21:26:38.302Z,9.83
2023-05-10T21:29:05.690Z,11.40
2023-05-10T21:31:32.571Z,7.53
2023-05-10T21:33:59.491Z,11.07
2023-05-10T21:36:27.104Z,9.70
2023-05-10T21:38:53.959Z,7.23
2023-05-10T21:41:21.957Z,8.07
2023-05-10T21:43:48.792Z,6.47
2023-05-10T21:46:15.785Z,11.50
2023-05-10T21:48:42.714Z,6.07
2023-05-10T21:51:09.747Z,8.20
2023-05-10T21:53:37.844Z,6.83
2023-05-10T21:56:05.992Z,8.07
2023-05-10T21:58:33.266Z,10.80
2023-05-10T22:01:00.848Z,11.30
2023-05-10T22:03:27.915Z,13.33
2023-05-10T22:05:55.078Z,7.73
2023-05-10T22:08:21.912Z,7.33
2023-05-10T22:10:48.871Z,9.13
2023-05-10T22:13:15.668Z,8.27
2023-05-10T22:15:43.492Z,9.00
2023-05-10T22:18:10.709Z,11.53
2023-05-10T22:20:37.600Z,11.00
2023-05-10T22:23:04.417Z,9.77
2023-05-10T22:25:31.980Z,12.60
2023-05-10T22:27:58.785Z,8.63
2023-05-10T22:30:25.997Z,6.70
2023-05-10T22:32:52.919Z,9.47
2023-05-10T22:35:19.850Z,15.37
2023-05-10T22:37:46.652Z,15.00
2023-05-10T22:40:13.594Z,11.27
2023-05-10T22:42:40.365Z,18.10
2023-05-10T22:45:07.608Z,17.60
2023-05-10T22:47:34.852Z,11.50
2023-05-10T22:50:03.788Z,9.37
2023-05-10T22:52:30.716Z,15.83
2023-05-10T22:54:57.571Z,17.80
2023-05-10T22:57:24.771Z,13.20
2023-05-10T22:59:52.230Z,11.37
2023-05-10T23:02:19.133Z,13.00
2023-05-10T23:04:46.583Z,8.00
2023-05-10T23:07:13.906Z,11.03
2023-05-10T23:09:40.897Z,9.90
2023-05-10T23:12:07.775Z,15.23
2023-05-10T23:14:34.810Z,10.70
2023-05-10T23:17:01.723Z,9.47
2023-05-10T23:19:28.614Z,14.60
2023-05-10T23:21:55.464Z,12.37
2023-05-10T23:24:22.351Z,9.23
2023-05-10T23:26:49.209Z,9.10
2023-05-10T23:29:16.333Z,11.63
2023-05-10T23:31:45.932Z,7.77
2023-05-10T23:34:12.926Z,13.63
2023-05-10T23:36:39.737Z,9.30
2023-05-10T23:39:08.346Z,11.47
2023-05-10T23:41:35.366Z,11.20
2023-05-10T23:44:05.094Z,9.23
2023-05-10T23:46:32.023Z,8.50
2023-05-10T23:48:59.350Z,9.57
2023-05-10T23:51:26.248Z,11.10
2023-05-10T23:53:53.024Z,9.80
2023-05-10T23:56:19.959Z,12.03
2023-05-10T23:58:46.831Z,8.43
